createdAt,value
2018-04-07T00:02:02.002Z,11.87
2018-04-07T00:04:29.551Z,11.70
2018-04-07T00:06:57.123Z,11.67
2018-04-07T00:09:24.679Z,12.27
2018-04-07T00:11:52.272Z,10.70
2018-04-07T00:14:19.850Z,11.40
2018-04-07T00:16:48.266Z,11.93
2018-04-07T00:19:15.871Z,12.20
2018-04-07T00:21:43.443Z,11.00
2018-04-07T00:24:11.765Z,11.50
2018-04-07T00:26:39.311Z,11.27
2018-04-07T00:29:06.912Z,10.90
2018-04-07T00:31:34.452Z,10.97
2018-04-07T00:34:01.996Z,12.47
2018-04-07T00:36:29.590Z,11.80
2018-04-07T00:38:57.143Z,10.50
2018-04-07T00:41:24.696Z,11.80
2018-04-07T00:44:05.242Z,12.33
2018-04-07T00:46:32.796Z,10.50
2018-04-07T00:49:00.350Z,10.93
2018-04-07T00:51:27.922Z,11.87
2018-04-07T00:53:55.484Z,10.53
2018-04-07T00:56:23.070Z,11.30
2018-04-07T00:58:50.646Z,11.30
2018-04-07T01:01:18.179Z,9.67
2018-04-07T01:03:45.732Z,11.53
2018-04-07T01:06:13.311Z,11.27
2018-04-07T01:08:40.882Z,12.00
2018-04-07T01:11:08.426Z,10.53
2018-04-07T01:13:36.016Z,10.57
2018-04-07T01:16:04.333Z,11.00
2018-04-07T01:18:31.883Z,11.97
2018-04-07T01:20:59.512Z,11.50
2018-04-07T01:23:27.823Z,10.57
2018-04-07T01:25:55.370Z,11.93
2018-04-07T01:28:22.976Z,11.40
2018-04-07T01:30:50.529Z,11.70
2018-04-07T01:33:18.088Z,12.20
2018-04-07T01:35:45.663Z,11.83
2018-04-07T01:38:13.251Z,11.93
2018-04-07T01:40:41.582Z,11.60
2018-04-07T01:43:09.499Z,12.57
2018-04-07T01:45:37.106Z,11.70
2018-04-07T01:48:04.676Z,11.30
2018-04-07T01:50:32.262Z,12.17
2018-04-07T01:53:00.585Z,11.63
2018-04-07T01:55:28.147Z,13.37
2018-04-07T01:57:55.728Z,11.90
2018-04-07T02:00:24.083Z,12.73
2018-04-07T02:02:51.629Z,13.27
2018-04-07T02:05:19.210Z,12.43
2018-04-07T02:07:46.762Z,11.63
2018-04-07T02:10:14.303Z,11.30
2018-04-07T02:12:41.883Z,12.93
2018-04-07T02:15:09.439Z,12.10
2018-04-07T02:17:36.987Z,12.73
2018-04-07T02:20:04.560Z,12.40
2018-04-07T02:22:32.102Z,13.20
2018-04-07T02:24:59.649Z,13.03
2018-04-07T02:27:27.219Z,12.80
2018-04-07T02:29:54.779Z,12.50
2018-04-07T02:32:22.337Z,13.30
2018-04-07T02:34:49.923Z,13.30
2018-04-07T02:37:17.471Z,13.57
2018-04-07T02:39:45.021Z,12.30
2018-04-07T02:42:12.611Z,12.60
2018-04-07T02:44:40.180Z,12.93
2018-04-07T02:47:07.734Z,13.27
2018-04-07T02:49:35.312Z,14.00
2018-04-07T02:52:02.867Z,14.00
2018-04-07T02:54:30.441Z,15.17
2018-04-07T02:56:58.790Z,14.00
2018-04-07T02:59:26.347Z,13.90
2018-04-07T03:01:53.891Z,13.07
2018-04-07T03:04:21.463Z,14.33
2018-04-07T03:06:49.009Z,12.10
2018-04-07T03:09:16.583Z,14.10
2018-04-07T03:11:44.230Z,13.97
2018-04-07T03:14:11.781Z,13.30
2018-04-07T03:16:39.334Z,14.87
2018-04-07T03:19:06.906Z,13.57
2018-04-07T03:21:34.447Z,13.73
2018-04-07T03:24:08.481Z,13.50
2018-04-07T03:26:36.023Z,13.87
2018-04-07T03:29:03.582Z,14.10
2018-04-07T03:31:31.174Z,12.93
2018-04-07T03:33:58.738Z,15.00
2018-04-07T03:36:26.304Z,14.30
2018-04-07T03:38:53.888Z,13.27
2018-04-07T03:41:22.224Z,13.47
2018-04-07T03:43:49.865Z,13.60
2018-04-07T03:46:17.436Z,13.30
2018-04-07T03:48:44.992Z,14.23
2018-04-07T03:51:12.566Z,14.40
2018-04-07T03:53:40.136Z,12.93
2018-04-07T03:56:07.699Z,13.07
2018-04-07T03:58:35.323Z,13.47
2018-04-07T04:01:02.876Z,14.60
2018-04-07T04:03:30.471Z,13.47
2018-04-07T04:05:58.025Z,14.10
2018-04-07T04:08:25.589Z,13.83
2018-04-07T04:10:53.179Z,13.03
2018-04-07T04:13:21.506Z,13.97
2018-04-07T04:16:11.104Z,14.40
2018-04-07T04:18:38.662Z,14.17
2018-04-07T04:21:07.005Z,15.40
2018-04-07T04:23:34.936Z,15.97
2018-04-07T04:26:03.239Z,15.37
2018-04-07T04:28:30.818Z,14.90
2018-04-07T04:30:58.378Z,15.90
2018-04-07T04:33:50.234Z,15.73
2018-04-07T04:36:17.781Z,16.13
2018-04-07T04:38:45.379Z,15.23
2018-04-07T04:41:13.703Z,15.30
2018-04-07T04:43:41.246Z,16.00
2018-04-07T04:46:08.858Z,16.67
2018-04-07T04:48:36.398Z,16.20
2018-04-07T04:51:03.985Z,16.73
2018-04-07T04:53:31.597Z,14.60
2018-04-07T04:55:59.152Z,16.77
2018-04-07T04:58:26.742Z,17.00
2018-04-07T05:00:54.301Z,16.03
2018-04-07T05:03:32.072Z,17.07
2018-04-07T05:06:00.646Z,17.00
2018-04-07T05:08:28.198Z,15.77
2018-04-07T05:10:55.763Z,17.17
2018-04-07T05:13:23.322Z,15.60
2018-04-07T05:15:50.892Z,16.73
2018-04-07T05:18:18.442Z,15.40
2018-04-07T05:20:45.983Z,17.20
2018-04-07T05:23:13.555Z,16.23
2018-04-07T05:25:41.275Z,16.47
2018-04-07T05:28:21.862Z,16.93
2018-04-07T05:30:58.865Z,17.60
2018-04-07T05:33:26.452Z,17.63
2018-04-07T05:36:03.959Z,16.80
2018-04-07T05:38:31.559Z,16.97
2018-04-07T05:40:59.883Z,17.77
2018-04-07T05:43:28.271Z,17.20
2018-04-07T05:45:55.858Z,15.90
2018-04-07T05:48:45.449Z,16.40
2018-04-07T05:51:14.005Z,16.10
2018-04-07T05:53:41.803Z,18.20
2018-04-07T05:56:09.404Z,17.47
2018-04-07T05:58:36.966Z,16.73
2018-04-07T06:01:04.514Z,16.20
2018-04-07T06:03:32.104Z,16.10
2018-04-07T06:06:12.652Z,14.67
2018-04-07T06:08:44.090Z,16.87
2018-04-07T06:11:11.635Z,16.47
2018-04-07T06:13:56.354Z,16.30
2018-04-07T06:16:23.902Z,15.20
2018-04-07T06:18:51.491Z,15.17
2018-04-07T06:21:19.809Z,15.63
2018-04-07T06:23:47.355Z,15.80
2018-04-07T06:26:14.949Z,16.87
2018-04-07T06:28:42.499Z,16.37
2018-04-07T06:31:10.076Z,16.23
2018-04-07T06:33:37.626Z,16.33
2018-04-07T06:36:11.701Z,16.90
2018-04-07T06:38:39.280Z,17.10
2018-04-07T06:41:07.659Z,17.10
2018-04-07T06:43:35.210Z,18.37
2018-04-07T06:46:02.769Z,16.83
2018-04-07T06:48:30.344Z,16.83
2018-04-07T06:50:57.900Z,16.53
2018-04-07T06:53:25.455Z,15.43
2018-04-07T06:55:53.044Z,17.80
2018-04-07T06:58:23.531Z,16.67
2018-04-07T07:00:51.104Z,15.60
2018-04-07T07:03:18.787Z,15.27
2018-04-07T07:05:46.384Z,18.00
2018-04-07T07:08:13.964Z,16.97
2018-04-07T07:10:41.507Z,16.60
2018-04-07T07:13:09.084Z,17.27
2018-04-07T07:15:36.627Z,17.60
2018-04-07T07:18:04.171Z,17.30
2018-04-07T07:20:32.527Z,17.67
2018-04-07T07:23:00.072Z,16.67
2018-04-07T07:25:27.656Z,17.30
2018-04-07T07:27:55.983Z,16.13
2018-04-07T07:30:23.529Z,17.53
2018-04-07T07:32:51.099Z,17.50
2018-04-07T07:35:18.649Z,16.63
2018-04-07T07:37:46.298Z,17.83
2018-04-07T07:40:13.868Z,17.57
2018-04-07T07:42:41.726Z,16.77
2018-04-07T07:45:09.330Z,17.77
2018-04-07T07:47:36.903Z,16.90
2018-04-07T07:50:04.477Z,17.40
2018-04-07T07:52:32.867Z,16.97
2018-04-07T07:55:01.179Z,17.07
2018-04-07T07:57:28.783Z,17.20
2018-04-07T07:59:56.674Z,17.37
2018-04-07T08:02:24.280Z,16.73
2018-04-07T08:04:52.394Z,16.43
2018-04-07T08:07:24.119Z,16.63
2018-04-07T08:09:51.674Z,16.40
2018-04-07T08:12:19.231Z,16.90
2018-04-07T08:14:59.981Z,17.20
2018-04-07T08:17:27.809Z,17.50
2018-04-07T08:20:04.951Z,15.87
2018-04-07T08:22:32.777Z,15.30
2018-04-07T08:25:06.905Z,17.23
2018-04-07T08:27:34.470Z,16.60
2018-04-07T08:30:09.475Z,15.90
2018-04-07T08:32:37.027Z,18.57
2018-04-07T08:35:05.341Z,15.13
2018-04-07T08:37:32.911Z,16.13
2018-04-07T08:40:00.458Z,16.87
2018-04-07T08:42:28.027Z,15.73
2018-04-07T08:44:55.566Z,16.43
2018-04-07T08:47:23.149Z,16.73
2018-04-07T08:49:50.719Z,17.50
2018-04-07T08:52:18.358Z,16.40
2018-04-07T08:54:45.946Z,16.97
2018-04-07T08:57:13.497Z,15.87
2018-04-07T08:59:41.055Z,14.80
2018-04-07T09:02:09.627Z,16.00
2018-04-07T09:04:37.310Z,15.27
2018-04-07T09:07:04.949Z,16.80
2018-04-07T09:09:32.535Z,15.90
2018-04-07T09:12:00.084Z,16.13
2018-04-07T09:14:27.653Z,16.43
2018-04-07T09:16:56.303Z,16.53
2018-04-07T09:19:25.911Z,15.20
2018-04-07T09:22:03.570Z,14.90
2018-04-07T09:24:45.147Z,15.57
2018-04-07T09:30:06.211Z,14.40
2018-04-07T09:32:33.759Z,14.27
2018-04-07T09:35:01.310Z,15.67
2018-04-07T09:37:29.647Z,13.37
2018-04-07T09:40:01.064Z,14.80
2018-04-07T09:42:28.640Z,14.03
2018-04-07T09:44:56.198Z,14.03
2018-04-07T09:47:23.751Z,14.40
2018-04-07T09:49:51.315Z,13.10
2018-04-07T09:52:18.897Z,13.60
2018-04-07T09:54:46.475Z,13.10
2018-04-07T09:57:14.022Z,13.43
2018-04-07T09:59:41.563Z,14.00
2018-04-07T10:02:22.554Z,14.13
2018-04-07T10:04:52.111Z,13.40
2018-04-07T10:07:19.699Z,13.67
2018-04-07T10:09:53.960Z,14.20
2018-04-07T10:12:22.301Z,12.70
2018-04-07T10:14:49.872Z,14.53
2018-04-07T10:17:17.436Z,13.17
2018-04-07T10:19:45.018Z,13.40
2018-04-07T10:22:16.940Z,12.70
2018-04-07T10:24:47.918Z,13.67
2018-04-07T10:27:17.254Z,12.37
2018-04-07T10:29:44.831Z,13.07
2018-04-07T10:32:12.407Z,13.07
2018-04-07T10:35:03.101Z,12.57
2018-04-07T10:37:31.714Z,12.17
2018-04-07T10:39:59.262Z,12.20
2018-04-07T10:42:26.832Z,12.97
2018-04-07T10:45:14.842Z,13.23
2018-04-07T10:47:42.419Z,13.20
2018-04-07T10:50:09.995Z,11.60
2018-04-07T10:52:38.370Z,12.20
2018-04-07T10:55:05.935Z,13.50
2018-04-07T10:57:34.248Z,13.97
2018-04-07T11:00:01.861Z,11.60
2018-04-07T11:02:30.191Z,14.30
2018-04-07T11:04:57.756Z,12.90
2018-04-07T11:07:25.335Z,12.33
2018-04-07T11:09:52.904Z,12.40
2018-04-07T11:12:20.499Z,12.53
2018-04-07T11:14:49.313Z,12.30
2018-04-07T11:17:16.921Z,12.10
2018-04-07T11:19:44.604Z,12.50
2018-04-07T11:22:13.320Z,13.40
2018-04-07T11:24:40.931Z,13.60
2018-04-07T11:27:08.486Z,13.63
2018-04-07T11:29:39.386Z,13.90
2018-04-07T11:32:07.045Z,11.27
2018-04-07T11:34:34.610Z,12.50
2018-04-07T11:37:02.186Z,13.27
2018-04-07T11:39:29.750Z,11.57
2018-04-07T11:41:57.306Z,12.60
2018-04-07T11:44:24.905Z,13.73
2018-04-07T11:46:53.275Z,13.23
2018-04-07T11:49:21.644Z,12.10
2018-04-07T11:51:49.192Z,13.30
2018-04-07T11:54:16.774Z,12.03
2018-04-07T11:56:45.115Z,13.27
2018-04-07T11:59:12.662Z,12.17
2018-04-07T12:01:54.403Z,12.53
2018-04-07T12:04:22.720Z,12.13
2018-04-07T12:06:50.310Z,12.23
2018-04-07T12:09:17.882Z,11.90
2018-04-07T12:11:45.435Z,12.33
2018-04-07T12:14:13.010Z,12.50
2018-04-07T12:16:50.419Z,12.20
2018-04-07T12:19:18.780Z,12.37
2018-04-07T12:21:59.646Z,12.30
2018-04-07T12:24:27.302Z,10.80
2018-04-07T12:26:55.834Z,11.00
2018-04-07T12:29:23.523Z,11.80
2018-04-07T12:31:57.208Z,10.97
2018-04-07T12:34:24.863Z,11.47
2018-04-07T12:39:47.117Z,10.87
2018-04-07T12:42:14.698Z,10.87
2018-04-07T12:44:42.246Z,10.63
2018-04-07T12:47:09.802Z,11.57
2018-04-07T12:49:37.367Z,11.00
2018-04-07T12:52:04.927Z,12.93
2018-04-07T12:54:32.539Z,12.00
2018-04-07T12:57:00.872Z,12.60
2018-04-07T12:59:28.423Z,12.57
2018-04-07T13:01:56.009Z,11.03
2018-04-07T13:04:23.594Z,10.60
2018-04-07T13:06:51.942Z,11.37
2018-04-07T13:09:19.504Z,10.23
2018-04-07T13:12:06.742Z,9.87
2018-04-07T13:14:34.303Z,10.20
2018-04-07T13:17:01.879Z,11.27
2018-04-07T13:19:30.243Z,10.93
2018-04-07T13:21:58.715Z,10.93
2018-04-07T13:24:26.286Z,10.33
2018-04-07T13:26:54.644Z,9.80
2018-04-07T13:29:22.199Z,9.13
2018-04-07T13:32:09.677Z,10.00
2018-04-07T13:34:37.543Z,11.00
2018-04-07T13:37:05.122Z,11.00
2018-04-07T13:39:33.717Z,10.40
2018-04-07T13:42:01.269Z,10.47
2018-04-07T13:44:28.850Z,9.90
2018-04-07T13:46:56.400Z,9.37
2018-04-07T13:49:24.745Z,8.73
2018-04-07T13:51:53.128Z,8.87
2018-04-07T13:54:20.683Z,9.97
2018-04-07T13:56:48.246Z,8.77
2018-04-07T13:59:15.854Z,8.93
2018-04-07T14:01:43.436Z,8.40
2018-04-07T14:04:16.083Z,8.20
2018-04-07T14:06:43.688Z,8.30
2018-04-07T14:09:21.677Z,8.50
2018-04-07T14:11:50.043Z,8.93
2018-04-07T14:14:17.602Z,8.27
2018-04-07T14:16:45.253Z,8.40
2018-04-07T14:19:31.753Z,8.53
2018-04-07T14:21:59.322Z,7.97
2018-04-07T14:24:26.932Z,8.23
2018-04-07T14:26:54.548Z,7.40
2018-04-07T14:29:22.097Z,7.77
2018-04-07T14:31:49.663Z,8.53
2018-04-07T14:34:17.243Z,8.27
2018-04-07T14:36:45.607Z,8.90
2018-04-07T14:39:13.147Z,8.53
2018-04-07T14:41:50.794Z,8.10
2018-04-07T14:44:18.349Z,8.40
2018-04-07T14:46:49.192Z,8.30
2018-04-07T14:49:23.230Z,9.30
2018-04-07T14:51:50.767Z,7.83
2018-04-07T14:54:18.346Z,7.73
2018-04-07T14:56:45.971Z,7.70
2018-04-07T14:59:13.485Z,8.20
2018-04-07T15:01:41.104Z,7.30
2018-04-07T15:04:08.675Z,8.17
2018-04-07T15:06:37.038Z,7.13
2018-04-07T15:09:04.605Z,6.97
2018-04-07T15:11:32.159Z,7.30
2018-04-07T15:13:59.826Z,7.40
2018-04-07T15:16:27.363Z,7.70
2018-04-07T15:18:55.790Z,7.77
2018-04-07T15:21:23.354Z,6.37
2018-04-07T15:23:51.644Z,6.20
2018-04-07T15:26:19.222Z,6.23
2018-04-07T15:28:47.547Z,7.10
2018-04-07T15:31:15.128Z,7.43
2018-04-07T15:33:42.746Z,6.73
2018-04-07T15:36:10.293Z,6.70
2018-04-07T15:38:38.631Z,7.00
2018-04-07T15:41:06.184Z,7.40
2018-04-07T15:43:33.746Z,7.97
2018-04-07T15:46:02.361Z,9.60
2018-04-07T15:48:33.823Z,10.33
2018-04-07T15:53:55.190Z,7.77
2018-04-07T15:56:22.743Z,8.40
2018-04-07T15:58:50.294Z,8.47
2018-04-07T16:01:17.858Z,7.63
2018-04-07T16:03:48.806Z,7.23
2018-04-07T16:06:16.371Z,7.60
2018-04-07T16:08:43.930Z,7.27
2018-04-07T16:11:11.472Z,8.23
2018-04-07T16:13:39.134Z,8.67
2018-04-07T16:16:06.855Z,9.00
2018-04-07T16:18:35.267Z,7.17
2018-04-07T16:21:02.828Z,7.80
2018-04-07T16:23:30.387Z,7.27
2018-04-07T16:25:57.987Z,8.47
2018-04-07T16:28:25.532Z,7.83
2018-04-07T16:30:53.101Z,8.30
2018-04-07T16:33:21.228Z,8.40
2018-04-07T16:35:48.890Z,8.20
2018-04-07T16:38:17.241Z,8.67
2018-04-07T16:40:46.037Z,8.50
2018-04-07T16:43:13.626Z,7.40
2018-04-07T16:45:41.397Z,9.23
2018-04-07T16:48:08.955Z,8.70
2018-04-07T16:50:36.536Z,10.17
2018-04-07T16:53:04.124Z,12.47
2018-04-07T16:55:31.993Z,10.33
2018-04-07T16:58:00.444Z,22.43
2018-04-07T17:00:28.294Z,8.87
2018-04-07T17:02:56.068Z,9.47
2018-04-07T17:05:23.675Z,7.70
2018-04-07T17:07:51.244Z,9.40
2018-04-07T17:10:19.639Z,16.17
2018-04-07T17:12:47.242Z,29.93
2018-04-07T17:15:14.794Z,70.03
2018-04-07T17:17:42.499Z,42.07
2018-04-07T17:20:21.863Z,9.93
2018-04-07T17:22:51.561Z,9.03
2018-04-07T17:25:20.222Z,9.63
2018-04-07T17:27:50.031Z,9.63
2018-04-07T17:30:21.120Z,10.97
2018-04-07T17:32:48.671Z,10.50
2018-04-07T17:35:16.253Z,11.57
2018-04-07T17:37:43.820Z,10.20
2018-04-07T17:40:11.427Z,10.03
2018-04-07T17:42:39.006Z,10.50
2018-04-07T17:45:07.342Z,12.03
2018-04-07T17:47:34.882Z,11.00
2018-04-07T17:50:06.563Z,10.30
2018-04-07T17:52:34.114Z,9.30
2018-04-07T17:55:01.686Z,9.87
2018-04-07T17:57:41.090Z,9.23
2018-04-07T18:00:26.835Z,9.50
2018-04-07T18:02:55.256Z,9.07
2018-04-07T18:05:22.804Z,8.57
2018-04-07T18:07:50.407Z,8.43
2018-04-07T18:10:17.988Z,8.23
2018-04-07T18:12:46.335Z,8.53
2018-04-07T18:18:11.346Z,9.20
2018-04-07T18:20:57.542Z,8.53
2018-04-07T18:26:28.332Z,9.20
2018-04-07T18:28:56.679Z,9.63
2018-04-07T18:31:24.232Z,10.43
2018-04-07T18:33:51.798Z,9.73
2018-04-07T18:36:20.725Z,9.97
2018-04-07T18:38:48.787Z,10.53
2018-04-07T18:41:33.787Z,10.70
2018-04-07T18:44:02.217Z,10.83
2018-04-07T18:46:30.723Z,10.80
2018-04-07T18:49:02.741Z,10.53
2018-04-07T18:51:34.193Z,9.73
2018-04-07T18:54:04.956Z,10.00
2018-04-07T18:56:32.507Z,9.63
2018-04-07T18:59:00.263Z,10.50
2018-04-07T19:01:28.360Z,9.10
2018-04-07T19:03:56.763Z,9.77
2018-04-07T19:06:25.770Z,9.13
2018-04-07T19:08:53.460Z,9.73
2018-04-07T19:11:27.072Z,9.80
2018-04-07T19:13:55.015Z,9.40
2018-04-07T19:16:25.059Z,10.87
2018-04-07T19:18:52.728Z,11.60
2018-04-07T19:21:20.690Z,10.67
2018-04-07T19:23:51.182Z,10.93
2018-04-07T19:26:19.910Z,11.17
2018-04-07T19:28:47.724Z,11.03
2018-04-07T19:31:15.330Z,11.17
2018-04-07T19:33:43.220Z,12.50
2018-04-07T19:36:11.188Z,11.53
2018-04-07T19:38:39.178Z,11.97
2018-04-07T19:41:09.155Z,12.20
2018-04-07T19:43:37.126Z,13.27
2018-04-07T19:46:04.906Z,12.90
2018-04-07T19:48:34.420Z,12.23
2018-04-07T19:51:02.783Z,13.47
2018-04-07T19:53:31.623Z,13.03
2018-04-07T19:55:59.375Z,12.83
2018-04-07T19:58:32.814Z,11.50
2018-04-07T20:01:00.499Z,13.17
2018-04-07T20:03:34.592Z,13.03
2018-04-07T20:06:03.361Z,13.60
2018-04-07T20:08:30.950Z,12.53
2018-04-07T20:10:58.780Z,13.77
2018-04-07T20:13:26.326Z,12.67
2018-04-07T20:16:12.079Z,12.37
2018-04-07T20:18:59.406Z,12.43
2018-04-07T20:21:27.750Z,12.43
2018-04-07T20:24:01.003Z,13.47
2018-04-07T20:26:28.677Z,12.83
2018-04-07T20:31:49.013Z,12.90
2018-04-07T20:34:17.570Z,12.57
2018-04-07T20:36:45.129Z,13.93
2018-04-07T20:39:12.721Z,13.33
2018-04-07T20:41:40.266Z,12.80
2018-04-07T20:44:07.837Z,13.20
2018-04-07T20:46:35.421Z,12.90
2018-04-07T20:49:03.743Z,13.67
2018-04-07T20:51:31.335Z,13.17
2018-04-07T20:53:58.887Z,12.83
2018-04-07T20:56:27.476Z,12.43
2018-04-07T20:58:55.026Z,13.23
2018-04-07T21:01:22.583Z,13.03
2018-04-07T21:03:50.194Z,12.63
2018-04-07T21:06:18.511Z,13.10
2018-04-07T21:09:06.204Z,13.00
2018-04-07T21:11:33.756Z,13.17
2018-04-07T21:14:02.077Z,13.00
2018-04-07T21:16:29.652Z,13.77
2018-04-07T21:19:02.478Z,14.00
2018-04-07T21:21:30.023Z,14.73
2018-04-07T21:23:58.343Z,14.53
2018-04-07T21:26:25.934Z,14.37
2018-04-07T21:28:53.514Z,15.90
2018-04-07T21:31:21.852Z,14.20
2018-04-07T21:33:49.430Z,14.50
2018-04-07T21:36:17.066Z,14.53
2018-04-07T21:38:44.630Z,14.13
2018-04-07T21:41:12.203Z,15.30
2018-04-07T21:43:39.759Z,13.80
2018-04-07T21:46:07.347Z,14.07
2018-04-07T21:48:34.942Z,14.33
2018-04-07T21:51:03.270Z,13.93
2018-04-07T21:53:30.847Z,15.50
2018-04-07T21:55:58.395Z,14.73
2018-04-07T21:58:26.007Z,15.40
2018-04-07T22:00:53.592Z,13.17
2018-04-07T22:03:21.170Z,15.07
2018-04-07T22:05:48.784Z,14.60
2018-04-07T22:08:16.349Z,16.10
2018-04-07T22:10:43.921Z,14.60
2018-04-07T22:13:11.478Z,14.70
2018-04-07T22:15:39.031Z,14.13
2018-04-07T22:18:06.616Z,14.90
2018-04-07T22:20:34.175Z,14.70
2018-04-07T22:23:01.767Z,15.00
2018-04-07T22:25:37.029Z,13.83
2018-04-07T22:28:04.621Z,13.87
2018-04-07T22:30:32.196Z,13.73
2018-04-07T22:32:59.748Z,14.83
2018-04-07T22:35:27.350Z,14.30
2018-04-07T22:37:55.683Z,13.80
2018-04-07T22:40:23.255Z,13.30
2018-04-07T22:42:50.814Z,14.40
2018-04-07T22:45:18.375Z,12.73
2018-04-07T22:47:45.958Z,14.17
2018-04-07T22:50:13.502Z,13.47
2018-04-07T22:52:41.097Z,13.70
2018-04-07T22:55:09.416Z,12.83
2018-04-07T22:57:56.829Z,15.07
2018-04-07T23:00:24.390Z,16.20
2018-04-07T23:02:51.944Z,14.77
2018-04-07T23:05:19.520Z,14.20
2018-04-07T23:07:47.108Z,15.27
2018-04-07T23:10:24.758Z,14.83
2018-04-07T23:12:52.323Z,14.40
2018-04-07T23:15:19.884Z,13.07
2018-04-07T23:17:47.469Z,14.47
2018-04-07T23:20:15.023Z,15.33
2018-04-07T23:22:42.593Z,14.60
2018-04-07T23:25:10.158Z,15.17
2018-04-07T23:27:37.716Z,15.27
2018-04-07T23:30:05.290Z,14.67
2018-04-07T23:32:32.839Z,15.17
2018-04-07T23:35:03.440Z,15.50
2018-04-07T23:37:30.988Z,16.07
2018-04-07T23:39:58.534Z,16.57
2018-04-07T23:42:26.114Z,16.87
2018-04-07T23:44:53.676Z,14.17
2018-04-07T23:47:21.256Z,15.57
2018-04-07T23:49:48.810Z,15.37
2018-04-07T23:52:16.363Z,16.10
2018-04-07T23:54:43.931Z,15.40
2018-04-07T23:57:11.514Z,15.20
2018-04-07T23:59:39.861Z,14.73
